Time;durP1;ratioP1;P1;durP2;ratioP2;P2;SDS_P1;SDS_P2;PMS_P1;PMS_P2;Temp;Humidity;BMP_temperature;BMP_pressure;BME280_temperature;BME280_humidity;BME280_pressure;Samples;Min_cycle;Max_cycle;Signal;HPM_P1;HPM_P2
2022/06/09 00:02:20;;;;;;;;;;;;;;;16.04;nan;99029.66;4999961;28;20024;-88
2022/06/09 00:04:49;;;;;;;;;;;;;;;16.06;nan;99018.91;4982564;28;20445;-88
2022/06/09 00:07:15;;;;;;;;;;;;;;;16.04;nan;99029.66;4997299;28;20039;-88
2022/06/09 00:09:46;;;;;;;;;;;;;;;15.98;nan;99032.88;5003570;28;19976;-87
2022/06/09 00:12:12;;;;;;;;;;;;;;;15.93;nan;99032.47;4999462;28;20650;-88
2022/06/09 00:14:37;;;;;;;;;;;;;;;15.92;nan;99041.41;5006037;28;19988;-89
2022/06/09 00:17:03;;;;;;;;;;;;;;;15.88;nan;99043.53;5001469;28;20026;-88
2022/06/09 00:19:34;;;;;;;;;;;;;;;15.84;nan;99041.31;5002719;28;20051;-87
2022/06/09 00:22:00;;;;;;;;;;;;;;;15.80;nan;99050.53;5015080;28;20670;-88
2022/06/09 00:24:25;;;;;;;;;;;;;;;15.79;nan;99054.13;4999663;28;20023;-88
2022/06/09 00:26:50;;;;;;;;;;;;;;;15.79;nan;99057.63;5003384;28;20015;-89
2022/06/09 00:29:16;;;;;;;;;;;;;;;15.82;nan;99053.84;4996115;28;19996;-88
2022/06/09 00:31:41;;;;;;;;;;;;;;;;;;4995623;28;19988;-88
2022/06/09 00:34:06;;;;;;;;;;;;;;;;;;4996503;28;19976;-87
2022/06/09 00:36:31;;;;;;;;;;;;;;;;;;5000955;28;19976;-88
2022/06/09 00:38:57;;;;;;;;;;;;;;;15.75;nan;99077.44;4998442;28;19983;-88
2022/06/09 00:41:24;;;;;;;;;;;;;;;15.75;nan;99074.78;5000847;28;19968;-88
2022/06/09 00:43:50;;;;;;;;;;;;;;;15.72;nan;99085.66;4997852;28;19976;-88
2022/06/09 00:46:18;;;;;;;;;;;;;;;15.72;nan;99084.84;5011850;28;19976;-87
2022/06/09 00:49:04;;;;;;;;;;;;;;;15.72;nan;99082.19;5008291;28;19969;-88
2022/06/09 00:51:35;;;;;;;;;;;;;;;15.72;nan;99077.72;5003108;28;20097;-88
2022/06/09 00:54:06;;;;;;;;;;;;;;;15.72;nan;99082.19;5001121;28;20087;-89
2022/06/09 00:56:32;;;;;;;;;;;;;;;15.73;nan;99087.31;5008425;28;20502;-88
2022/06/09 00:58:58;;;;;;;;;;;;;;;15.74;nan;99085.50;4994634;28;20485;-89
2022/06/09 01:01:24;;;;;;;;;;;;;;;15.77;nan;99090.50;4994752;28;19968;-90
2022/06/09 01:03:52;;;;;;;;;;;;;;;15.74;nan;99090.81;4995781;28;19980;-89
2022/06/09 01:06:20;;;;;;;;;;;;;;;15.73;nan;99089.16;4994759;28;19972;-88
2022/06/09 01:08:55;;;;;;;;;;;;;;;15.73;nan;99089.97;5001705;28;19980;-89
2022/06/09 01:11:21;;;;;;;;;;;;;;;15.76;nan;99094.16;4999762;28;20553;-89
2022/06/09 01:13:46;;;;;;;;;;;;;;;15.76;nan;99096.78;5004363;28;20743;-90
2022/06/09 01:16:30;;;;;;;;;;;;;;;15.74;nan;99090.81;5006845;28;19972;-89
2022/06/09 01:19:31;;;;;;;;;;;;;;;15.72;nan;99096.25;5003717;28;19976;-88
2022/06/09 01:22:00;;;;;;;;;;;;;;;15.70;nan;99091.09;4932993;29;20719;-88
2022/06/09 01:24:29;;;;;;;;;;;;;;;15.73;nan;99094.44;4997757;28;20319;-89
2022/06/09 01:27:11;;;;;;;;;;;;;;;15.77;nan;99095.81;5008435;28;19984;-89
2022/06/09 01:29:41;;;;;;;;;;;;;;;15.81;nan;99090.09;5004620;28;19976;-89
2022/06/09 01:32:06;;;;;;;;;;;;;;;15.85;nan;99093.28;5006364;28;20398;-88
2022/06/09 01:34:37;;;;;;;;;;;;;;;15.88;nan;99095.66;5010765;28;20594;-88
2022/06/09 01:37:16;;;;;;;;;;;;;;;15.91;nan;99101.50;5007038;28;19978;-88
2022/06/09 01:39:53;;;;;;;;;;;;;;;15.94;nan;99110.97;5009106;28;19964;-90
2022/06/09 01:42:38;;;;;;;;;;;;;;;15.96;nan;99105.50;5010091;28;19980;-88
2022/06/09 01:45:13;;;;;;;;;;;;;;;15.97;nan;99112.50;5010934;28;20432;-89
2022/06/09 01:47:43;;;;;;;;;;;;;;;15.97;nan;99117.78;5006352;28;19979;-88
2022/06/09 01:50:14;;;;;;;;;;;;;;;15.98;nan;99120.28;5007928;28;19976;-88
2022/06/09 01:52:44;;;;;;;;;;;;;;;15.96;nan;99121.41;5004343;28;19978;-89
2022/06/09 01:55:12;;;;;;;;;;;;;;;15.92;nan;99115.56;5005245;28;20015;-88
2022/06/09 01:57:38;;;;;;;;;;;;;;;15.89;nan;99115.84;5002081;28;20030;-88
2022/06/09 02:00:12;;;;;;;;;;;;;;;15.85;nan;99125.06;5005825;28;19985;-88
2022/06/09 02:02:41;;;;;;;;;;;;;;;15.81;nan;99118.38;5014794;28;19976;-89
2022/06/09 02:05:10;;;;;;;;;;;;;;;15.79;nan;99115.03;5005378;28;19972;-88
2022/06/09 02:07:37;;;;;;;;;;;;;;;15.77;nan;99117.00;5008798;28;20396;-89
2022/06/09 02:10:15;;;;;;;;;;;;;;;15.77;nan;99122.28;5011523;28;20035;-88
2022/06/09 02:12:40;;;;;;;;;;;;;;;15.75;nan;99109.22;5007488;28;19991;-88
2022/06/09 02:15:10;;;;;;;;;;;;;;;15.75;nan;99122.44;5022168;28;19983;-90
2022/06/09 02:17:46;;;;;;;;;;;;;;;15.73;nan;99126.22;5030263;28;20021;-89
2022/06/09 02:20:13;;;;;;;;;;;;;;;15.69;nan;99129.16;5030695;28;19972;-88
2022/06/09 02:22:38;;;;;;;;;;;;;;;15.68;nan;99131.91;5015149;28;20505;-88
2022/06/09 02:25:04;;;;;;;;;;;;;;;15.64;nan;99146.41;5024433;28;19969;-89
2022/06/09 02:27:29;;;;;;;;;;;;;;;15.62;nan;99146.53;5033530;28;20000;-89
2022/06/09 02:29:55;;;;;;;;;;;;;;;15.61;nan;99133.47;5035369;28;20044;-88
2022/06/09 02:32:22;;;;;;;;;;;;;;;15.57;nan;99137.34;5033201;28;22427;-88
2022/06/09 02:34:47;;;;;;;;;;;;;;;15.53;nan;99134.16;5034008;28;19981;-90
2022/06/09 02:37:13;;;;;;;;;;;;;;;15.49;nan;99136.22;5006864;28;19968;-88
2022/06/09 02:39:38;;;;;;;;;;;;;;;15.46;nan;99140.97;5016875;28;19980;-89
2022/06/09 02:42:04;;;;;;;;;;;;;;;15.44;nan;99138.47;5008149;28;20419;-89
2022/06/09 02:44:29;;;;;;;;;;;;;;;15.42;nan;99142.25;5009413;28;20357;-89
2022/06/09 02:46:55;;;;;;;;;;;;;;;15.39;nan;99150.44;5009246;28;19998;-91
2022/06/09 02:49:26;;;;;;;;;;;;;;;15.35;nan;99141.13;5014088;28;20506;-91
2022/06/09 02:51:52;;;;;;;;;;;;;;;15.29;nan;99131.09;5010581;28;20460;-89
2022/06/09 02:54:21;;;;;;;;;;;;;;;15.20;nan;99128.31;5014215;28;19977;-89
2022/06/09 02:56:49;;;;;;;;;;;;;;;15.18;nan;99142.66;5016738;28;19989;-91
2022/06/09 02:59:15;;;;;;;;;;;;;;;15.16;nan;99147.25;5011254;28;19972;-88
2022/06/09 03:01:43;;;;;;;;;;;;;;;15.15;nan;99149.06;5010565;28;19975;-89
2022/06/09 03:04:11;;;;;;;;;;;;;;;15.14;nan;99150.00;5008505;28;20656;-89
2022/06/09 03:06:36;;;;;;;;;;;;;;;15.14;nan;99157.94;5014592;28;19973;-88
2022/06/09 03:09:05;;;;;;;;;;;;;;;15.15;nan;99164.06;5006936;28;19973;-90
2022/06/09 03:11:33;;;;;;;;;;;;;;;15.14;nan;99173.81;5004893;28;20075;-89
2022/06/09 03:14:01;;;;;;;;;;;;;;;15.09;nan;99170.75;5009577;28;19976;-88
2022/06/09 03:16:26;;;;;;;;;;;;;;;15.03;nan;99176.59;5004552;28;20022;-87
2022/06/09 03:18:52;;;;;;;;;;;;;;;15.03;nan;99171.31;5008173;28;20250;-89
2022/06/09 03:21:18;;;;;;;;;;;;;;;15.01;nan;99176.75;5003696;28;19973;-89
2022/06/09 03:23:45;;;;;;;;;;;;;;;14.99;nan;99177.84;4994992;28;19976;-89
2022/06/09 03:26:11;;;;;;;;;;;;;;;14.94;nan;99177.44;4990739;28;19969;-90
2022/06/09 03:28:36;;;;;;;;;;;;;;;14.93;nan;99188.97;5006796;28;20045;-89
2022/06/09 03:31:02;;;;;;;;;;;;;;;14.92;nan;99182.00;5004079;28;19984;-90
2022/06/09 03:33:31;;;;;;;;;;;;;;;14.91;nan;99183.00;5003541;28;20264;-90
2022/06/09 03:35:56;;;;;;;;;;;;;;;14.88;nan;99193.81;4997684;28;20438;-89
2022/06/09 03:38:22;;;;;;;;;;;;;;;14.85;nan;99196.72;5001577;28;19969;-90
2022/06/09 03:40:47;;;;;;;;;;;;;;;14.82;nan;99196.06;5007098;28;21042;-89
2022/06/09 03:43:14;;;;;;;;;;;;;;;;;;4996166;28;19979;-89
2022/06/09 03:45:42;;;;;;;;;;;;;;;14.75;nan;99216.06;5005653;28;19972;-89
2022/06/09 03:48:08;;;;;;;;;;;;;;;14.76;nan;99214.25;5006522;28;19972;-89
2022/06/09 03:50:34;;;;;;;;;;;;;;;14.76;nan;99222.19;5004970;28;20018;-89
2022/06/09 03:52:59;;;;;;;;;;;;;;;14.76;nan;99219.53;5007400;28;19995;-91
2022/06/09 03:55:25;;;;;;;;;;;;;;;14.77;nan;99219.41;4993991;28;19972;-88
2022/06/09 03:58:01;;;;;;;;;;;;;;;14.77;nan;99230.00;5011275;28;19972;-88
2022/06/09 04:00:27;;;;;;;;;;;;;;;;;;5013453;28;20437;-90
2022/06/09 04:02:52;;;;;;;;;;;;;;;;;;5008528;28;19980;-90
2022/06/09 04:05:17;;;;;;;;;;;;;;;;;;5007241;28;20008;-90
2022/06/09 04:07:43;;;;;;;;;;;;;;;;;;5014355;28;19976;-90
2022/06/09 04:10:08;;;;;;;;;;;;;;;;;;5009061;28;20389;-90
2022/06/09 04:12:34;;;;;;;;;;;;;;;;;;5010993;28;20003;-90
2022/06/09 04:15:00;;;;;;;;;;;;;;;;;;5010379;28;19972;-89
2022/06/09 04:17:25;;;;;;;;;;;;;;;;;;5026310;28;20019;-90
2022/06/09 04:19:54;;;;;;;;;;;;;;;;;;5026252;28;19972;-91
2022/06/09 04:22:20;;;;;;;;;;;;;;;;;;5017340;28;20338;-90
2022/06/09 04:24:48;;;;;;;;;;;;;;;;;;5003810;28;20430;-90
2022/06/09 04:27:22;;;;;;;;;;;;;;;;;;5015277;28;20083;-91
2022/06/09 04:29:48;;;;;;;;;;;;;;;;;;5005685;28;20005;-90
2022/06/09 04:32:13;;;;;;;;;;;;;;;;;;5009081;28;19991;-92
2022/06/09 04:34:39;;;;;;;;;;;;;;;;;;5009957;28;19979;-89
2022/06/09 04:37:04;;;;;;;;;;;;;;;;;;5011493;28;19972;-90
2022/06/09 04:39:29;;;;;;;;;;;;;;;;;;5008707;28;19983;-87
2022/06/09 04:41:54;;;;;;;;;;;;;;;;;;5005064;28;20020;-89
2022/06/09 04:44:22;;;;;;;;;;;;;;;;;;5005369;28;19979;-89
2022/06/09 04:46:49;;;;;;;;;;;;;;;;;;5015985;28;19968;-88
2022/06/09 04:49:17;;;;;;;;;;;;;;;;;;5009176;28;20448;-89
2022/06/09 04:51:43;;;;;;;;;;;;;;;;;;4998249;28;20082;-88
2022/06/09 04:54:08;;;;;;;;;;;;;;;;;;5004586;28;20087;-89
2022/06/09 04:56:36;;;;;;;;;;;;;;;15.03;nan;99295.63;5007550;28;19983;-88
2022/06/09 04:59:02;;;;;;;;;;;;;;;15.04;nan;99289.34;5006545;28;19968;-87
2022/06/09 05:01:35;;;;;;;;;;;;;;;15.03;nan;99288.50;5006168;28;20071;-87
2022/06/09 05:04:01;;;;;;;;;;;;;;;15.02;nan;99301.91;5001851;28;19972;-87
2022/06/09 05:06:27;;;;;;;;;;;;;;;14.98;nan;99300.47;5007811;28;20255;-87
2022/06/09 05:08:53;;;;;;;;;;;;;;;14.94;nan;99304.38;5006288;28;20092;-89
2022/06/09 05:11:23;;;;;;;;;;;;;;;14.93;nan;99300.03;5010426;28;20370;-88
2022/06/09 05:13:49;;;;;;;;;;;;;;;14.94;nan;99309.66;5015117;28;20008;-88
2022/06/09 05:16:17;;;;;;;;;;;;;;;14.95;nan;99321.91;4997359;28;19999;-88
2022/06/09 05:18:42;;;;;;;;;;;;;;;14.92;nan;99308.94;5013839;28;19995;-87
2022/06/09 05:21:10;;;;;;;;;;;;;;;14.94;nan;99325.53;5016117;28;19976;-89
2022/06/09 05:23:39;;;;;;;;;;;;;;;14.99;nan;99318.03;5009940;28;20426;-87
2022/06/09 05:26:05;;;;;;;;;;;;;;;15.03;nan;99325.56;5006609;28;19983;-87
2022/06/09 05:28:31;;;;;;;;;;;;;;;15.08;nan;99325.16;5006679;28;20058;-87
2022/06/09 05:30:57;;;;;;;;;;;;;;;15.12;nan;99321.28;5008423;28;19996;-87
2022/06/09 05:33:23;;;;;;;;;;;;;;;15.21;nan;99333.72;5003314;28;19976;-89
2022/06/09 05:35:49;;;;;;;;;;;;;;;15.31;nan;99331.09;5013193;28;20289;-87
2022/06/09 05:46:31;;;;;;;;;;;;;;;16.53;nan;99328.97;5015091;28;19982;-88
2022/06/09 05:49:05;;;;;;;;;;;;;;;16.77;nan;99328.53;5003398;28;19972;-87
2022/06/09 05:51:31;;;;;;;;;;;;;;;16.85;nan;99330.44;5003859;28;19991;-87
2022/06/09 05:53:57;;;;;;;;;;;;;;;16.90;nan;99336.16;4980949;28;20945;-87
2022/06/09 05:56:23;;;;;;;;;;;;;;;16.93;nan;99335.84;5010098;28;20597;-89
2022/06/09 05:58:48;;;;;;;;;;;;;;;17.11;nan;99342.09;5014438;28;19963;-89
2022/06/09 06:01:14;;;;;;;;;;;;;;;17.16;nan;99339.84;5006870;28;19976;-89
2022/06/09 06:03:43;;;;;;;;;;;;;;;17.17;nan;99340.66;5004741;28;19979;-88
2022/06/09 06:08:53;;;;;;;;;;;;;;;17.01;nan;99352.75;5000969;28;20525;-87
2022/06/09 06:11:18;;;;;;;;;;;;;;;16.80;nan;99360.91;5002438;28;19989;-87
2022/06/09 06:13:45;;;;;;;;;;;;;;;16.58;nan;99367.34;5004419;28;19979;-87
2022/06/09 06:16:10;;;;;;;;;;;;;;;16.44;nan;99364.28;5004213;28;20061;-86
2022/06/09 06:18:35;;;;;;;;;;;;;;;16.31;nan;99364.56;5006390;28;19968;-89
2022/06/09 06:21:01;;;;;;;;;;;;;;;16.22;nan;99371.53;5002546;28;19968;-85
2022/06/09 06:23:26;;;;;;;;;;;;;;;16.16;nan;99369.44;4998853;28;20264;-88
2022/06/09 06:25:53;;;;;;;;;;;;;;;16.12;nan;99376.00;5011655;28;20484;-87
2022/06/09 06:28:18;;;;;;;;;;;;;;;15.96;nan;99379.22;5005574;28;19988;-87
2022/06/09 06:30:44;;;;;;;;;;;;;;;15.88;nan;99379.91;5012305;28;20010;-88
2022/06/09 06:33:09;;;;;;;;;;;;;;;15.93;nan;99382.97;5003608;28;20098;-86
2022/06/09 06:35:34;;;;;;;;;;;;;;;16.03;nan;99393.56;5001296;28;20015;-87
2022/06/09 06:38:00;;;;;;;;;;;;;;;16.12;nan;99386.59;4991303;28;19976;-87
2022/06/09 06:40:25;;;;;;;;;;;;;;;16.14;nan;99385.47;4991922;28;21166;-87
2022/06/09 06:42:51;;;;;;;;;;;;;;;16.11;nan;99380.47;4996891;28;20162;-86
2022/06/09 06:45:17;;;;;;;;;;;;;;;16.07;nan;99380.91;5001583;28;19971;-87
2022/06/09 06:47:42;;;;;;;;;;;;;;;16.06;nan;99387.16;5006219;28;19982;-88
2022/06/09 06:50:09;;;;;;;;;;;;;;;16.07;nan;99388.84;5008816;28;19976;-88
2022/06/09 06:52:35;;;;;;;;;;;;;;;16.10;nan;99400.00;5002968;28;20417;-87
2022/06/09 06:55:00;;;;;;;;;;;;;;;16.12;nan;99399.84;5014200;28;19971;-87
2022/06/09 06:57:25;;;;;;;;;;;;;;;16.08;nan;99407.22;5016916;28;19987;-86
2022/06/09 06:59:50;;;;;;;;;;;;;;;;;;5014202;28;19988;-86
2022/06/09 07:02:16;;;;;;;;;;;;;;;16.06;nan;99418.94;5001107;28;19974;-86
2022/06/09 07:04:41;;;;;;;;;;;;;;;16.01;nan;99418.50;5002305;28;19967;-87
2022/06/09 07:07:06;;;;;;;;;;;;;;;15.97;nan;99420.63;5002329;28;19973;-86
2022/06/09 07:09:32;;;;;;;;;;;;;;;15.98;nan;99424.91;5004414;28;19995;-87
2022/06/09 07:11:57;;;;;;;;;;;;;;;16.08;nan;99428.44;5005644;28;20019;-86
2022/06/09 07:14:25;;;;;;;;;;;;;;;16.37;nan;99425.81;4999387;28;19968;-86
2022/06/09 07:16:51;;;;;;;;;;;;;;;16.66;nan;99430.28;5008308;28;20572;-86
2022/06/09 07:19:16;;;;;;;;;;;;;;;17.24;nan;99416.91;5001795;28;19976;-85
2022/06/09 07:21:42;;;;;;;;;;;;;;;18.08;nan;99418.63;5001034;28;20309;-85
2022/06/09 07:24:08;;;;;;;;;;;;;;;18.99;nan;99417.59;4999836;28;20031;-86
2022/06/09 07:26:33;;;;;;;;;;;;;;;19.77;nan;99419.38;4998966;28;19986;-85
2022/06/09 07:28:59;;;;;;;;;;;;;;;20.32;nan;99424.16;5001962;28;19990;-85
2022/06/09 07:31:25;;;;;;;;;;;;;;;20.77;nan;99414.88;5007327;28;19992;-93
2022/06/09 07:37:08;;;;;;;;;;;;;;;21.63;nan;99418.69;5048425;22;20086;-73
2022/06/09 07:39:34;;;;;;;;;;;;;;;21.91;nan;99410.22;4995759;28;19969;-73
2022/06/09 07:42:01;;;;;;;;;;;;;;;22.15;nan;99403.88;4995781;28;20482;-76
2022/06/09 07:44:26;;;;;;;;;;;;;;;22.39;nan;99405.59;4977465;28;19989;-76
2022/06/09 07:46:51;;;;;;;;;;;;;;;22.49;nan;99414.19;4957127;28;19973;-76
2022/06/09 07:49:17;;;;;;;;;;;;;;;22.58;nan;99405.09;4971959;28;19977;-76
2022/06/09 07:51:42;;;;;;;;;;;;;;;22.70;nan;99411.66;4974235;28;20019;-76
2022/06/09 07:54:08;;;;;;;;;;;;;;;22.66;nan;99415.72;4964247;28;19985;-75
2022/06/09 07:56:33;;;;;;;;;;;;;;;22.85;nan;99418.94;4963860;28;19976;-75
2022/06/09 07:59:00;;;;;;;;;;;;;;;22.88;nan;99422.06;4968387;28;20402;-76
2022/06/09 08:01:26;;;;;;;;;;;;;;;22.83;nan;99423.63;4970196;28;20015;-75
2022/06/09 08:03:51;;;;;;;;;;;;;;;22.86;nan;99423.25;4966680;28;20334;-75
2022/06/09 08:06:16;;;;;;;;;;;;;;;22.72;nan;99411.50;4967455;28;19985;-76
2022/06/09 08:08:42;;;;;;;;;;;;;;;22.77;nan;99417.16;4963275;28;20424;-76
2022/06/09 08:11:09;;;;;;;;;;;;;;;22.32;nan;99410.81;4974598;28;19992;-76
2022/06/09 08:13:35;;;;;;;;;;;;;;;21.86;nan;99413.41;4967488;28;19988;-75
2022/06/09 08:16:00;;;;;;;;;;;;;;;21.62;nan;99419.69;4968659;28;19973;-76
2022/06/09 08:18:25;;;;;;;;;;;;;;;21.74;nan;99402.28;4968315;28;19980;-75
2022/06/09 08:20:51;;;;;;;;;;;;;;;22.00;nan;99401.94;4972576;28;19980;-76
2022/06/09 08:23:18;;;;;;;;;;;;;;;22.13;nan;99413.91;4966804;28;19988;-76
2022/06/09 08:25:45;;;;;;;;;;;;;;;22.10;nan;99415.94;4966821;28;19980;-75
2022/06/09 08:28:11;;;;;;;;;;;;;;;21.91;nan;99413.72;4966070;28;19976;-76
2022/06/09 08:30:37;;;;;;;;;;;;;;;21.70;nan;99413.47;4975557;28;20333;-75
2022/06/09 08:33:03;;;;;;;;;;;;;;;21.56;nan;99417.72;4966677;28;19984;-76
2022/06/09 08:35:28;;;;;;;;;;;;;;;21.68;nan;99404.78;4966690;28;19976;-75
2022/06/09 08:37:53;;;;;;;;;;;;;;;21.94;nan;99394.63;4972837;28;20003;-75
2022/06/09 08:40:24;;;;;;;;;;;;;;;22.15;nan;99406.56;4968410;28;19980;-75
2022/06/09 08:42:58;;;;;;;;;;;;;;;22.15;nan;99404.72;4965511;28;19976;-76
2022/06/09 08:45:42;;;;;;;;;;;;;;;21.85;nan;99401.03;4969641;28;19979;-76
2022/06/09 08:48:14;;;;;;;;;;;;;;;21.55;nan;99400.84;4968517;28;20178;-75
2022/06/09 08:50:47;;;;;;;;;;;;;;;21.36;nan;99407.41;4968345;28;19979;-75
2022/06/09 08:53:14;;;;;;;;;;;;;;;21.12;nan;99407.47;4972689;28;20072;-76
2022/06/09 08:55:45;;;;;;;;;;;;;;;20.86;nan;99416.50;4965608;28;19969;-75
2022/06/09 08:58:16;;;;;;;;;;;;;;;20.66;nan;99415.22;4966500;28;20054;-75
2022/06/09 09:00:46;;;;;;;;;;;;;;;20.27;nan;99421.13;4968086;28;20008;-76
2022/06/09 09:03:32;;;;;;;;;;;;;;;19.78;nan;99427.19;4962238;28;20406;-76
2022/06/09 09:06:06;;;;;;;;;;;;;;;19.62;nan;99432.41;4961254;28;20004;-76
2022/06/09 09:08:32;;;;;;;;;;;;;;;19.58;nan;99442.56;4963607;28;20421;-76
2022/06/09 09:11:05;;;;;;;;;;;;;;;19.58;nan;99442.56;4962551;28;20120;-75
2022/06/09 09:13:44;;;;;;;;;;;;;;;19.61;nan;99438.75;4965470;28;20240;-76
2022/06/09 09:16:20;;;;;;;;;;;;;;;19.62;nan;99443.91;4968376;28;19976;-76
2022/06/09 09:18:51;;;;;;;;;;;;;;;19.56;nan;99444.53;4972123;28;20000;-76
2022/06/09 09:21:19;;;;;;;;;;;;;;;19.58;nan;99439.06;4967880;28;20429;-76
2022/06/09 09:23:51;;;;;;;;;;;;;;;19.65;nan;99448.91;4963420;28;20011;-76
2022/06/09 09:26:23;;;;;;;;;;;;;;;19.73;nan;99450.81;4971074;28;19976;-76
2022/06/09 09:28:50;;;;;;;;;;;;;;;19.78;nan;99453.81;4972811;28;20011;-76
2022/06/09 09:31:24;;;;;;;;;;;;;;;19.93;nan;99443.41;4973183;28;20083;-75
2022/06/09 09:33:49;;;;;;;;;;;;;;;20.29;nan;99443.97;4968668;28;20518;-75
2022/06/09 09:36:15;;;;;;;;;;;;;;;20.85;nan;99441.56;4972829;28;19980;-75
2022/06/09 09:38:44;;;;;;;;;;;;;;;21.41;nan;99437.16;4986305;28;20126;-75
2022/06/09 09:41:24;;;;;;;;;;;;;;;21.83;nan;99441.31;4990551;28;19968;-75
2022/06/09 09:43:49;;;;;;;;;;;;;;;22.12;nan;99439.00;4988200;28;19984;-75
2022/06/09 09:46:20;;;;;;;;;;;;;;;22.41;nan;99441.00;4985800;28;20027;-74
2022/06/09 09:48:46;;;;;;;;;;;;;;;22.69;nan;99447.50;4992389;28;19972;-74
2022/06/09 09:51:13;;;;;;;;;;;;;;;22.68;nan;99445.00;4989480;28;19992;-75
2022/06/09 09:53:41;;;;;;;;;;;;;;;22.60;nan;99453.09;4984560;28;19988;-75
2022/06/09 09:56:15;;;;;;;;;;;;;;;22.44;nan;99446.84;4995301;28;19995;-74
2022/06/09 09:58:46;;;;;;;;;;;;;;;22.31;nan;99457.31;4986560;28;19972;-74
2022/06/09 10:01:18;;;;;;;;;;;;;;;21.92;nan;99455.47;4989641;28;20169;-72
2022/06/09 10:09:32;;;;;;;;;;;;;;;20.68;nan;99466.56;4984496;28;20489;-72
2022/06/09 10:12:01;;;;;;;;;;;;;;;20.47;nan;99457.19;4991990;28;20460;-73
2022/06/09 10:14:36;;;;;;;;;;;;;;;20.24;nan;99470.31;4981413;28;20342;-74
2022/06/09 10:17:03;;;;;;;;;;;;;;;20.24;nan;99470.31;4991307;28;20381;-74
2022/06/09 10:19:30;;;;;;;;;;;;;;;20.23;nan;99475.81;4988047;28;19973;-77
2022/06/09 10:21:57;;;;;;;;;;;;;;;20.40;nan;99479.34;4992211;28;20344;-76
2022/06/09 10:24:42;;;;;;;;;;;;;;;20.68;nan;99467.38;4978748;28;19996;-76
2022/06/09 10:27:09;;;;;;;;;;;;;;;20.79;nan;99474.22;4985529;28;20428;-74
2022/06/09 10:29:44;;;;;;;;;;;;;;;20.57;nan;99485.56;4984478;28;20027;-74
2022/06/09 10:32:12;;;;;;;;;;;;;;;20.36;nan;99486.00;4982440;28;19976;-75
2022/06/09 10:34:48;;;;;;;;;;;;;;;20.13;nan;99496.44;4989270;28;20020;-75
2022/06/09 10:37:25;;;;;;;;;;;;;;;19.94;nan;99501.03;4986421;28;20281;-75
2022/06/09 10:39:50;;;;;;;;;;;;;;;19.77;nan;99488.66;4988200;28;20384;-74
2022/06/09 10:42:34;;;;;;;;;;;;;;;19.49;nan;99474.63;4991501;28;19972;-76
2022/06/09 10:44:59;;;;;;;;;;;;;;;19.27;nan;99474.19;4982415;28;19992;-75
2022/06/09 10:55:36;;;;;;;;;;;;;;;;;;4994509;28;20273;-75
2022/06/09 10:58:01;;;;;;;;;;;;;;;;;;4983921;28;20433;-75
2022/06/09 11:00:28;;;;;;;;;;;;;;;;;;4986775;28;20049;-73
2022/06/09 11:02:56;;;;;;;;;;;;;;;;;;4995013;28;19969;-76
2022/06/09 11:05:22;;;;;;;;;;;;;;;;;;4990341;28;19981;-76
2022/06/09 11:07:47;;;;;;;;;;;;;;;;;;4983054;28;20030;-73
2022/06/09 11:10:12;;;;;;;;;;;;;;;;;;4992079;28;19979;-76
2022/06/09 11:12:37;;;;;;;;;;;;;;;;;;4991892;28;19997;-75
2022/06/09 11:15:02;;;;;;;;;;;;;;;;;;4993967;28;19976;-73
2022/06/09 11:17:28;;;;;;;;;;;;;;;;;;4986164;28;20055;-73
2022/06/09 11:19:53;;;;;;;;;;;;;;;;;;4992970;28;19983;-73
2022/06/09 11:22:37;;;;;;;;;;;;;;;21.41;nan;99484.38;4997559;28;20435;-73
2022/06/09 11:25:02;;;;;;;;;;;;;;;21.74;nan;99478.94;4989874;28;19976;-73
2022/06/09 11:27:40;;;;;;;;;;;;;;;22.00;nan;99482.19;4983285;28;19975;-73
2022/06/09 11:30:06;;;;;;;;;;;;;;;22.03;nan;99483.66;4990484;28;19972;-73
2022/06/09 11:32:34;;;;;;;;;;;;;;;21.94;nan;99479.38;4988439;28;20003;-75
2022/06/09 11:35:02;;;;;;;;;;;;;;;21.80;nan;99476.44;4990506;28;20459;-76
2022/06/09 11:37:37;;;;;;;;;;;;;;;21.75;nan;99481.47;4991539;28;20098;-75
2022/06/09 11:40:18;;;;;;;;;;;;;;;21.75;nan;99483.31;4988575;28;20086;-75
2022/06/09 11:42:55;;;;;;;;;;;;;;;21.85;nan;99479.41;4995110;28;20014;-75
2022/06/09 11:45:33;;;;;;;;;;;;;;;22.03;nan;99478.31;4978452;28;19983;-73
2022/06/09 11:48:00;;;;;;;;;;;;;;;21.89;nan;99477.22;4987338;28;19980;-74
2022/06/09 11:50:29;;;;;;;;;;;;;;;21.74;nan;99482.47;4988566;28;19989;-74
2022/06/09 11:52:56;;;;;;;;;;;;;;;21.65;nan;99478.13;4991949;28;19996;-76
2022/06/09 11:58:35;;;;;;;;;;;;;;;21.58;nan;99482.53;4985055;28;19980;-73
2022/06/09 12:01:23;;;;;;;;;;;;;;;21.60;nan;99470.66;4993364;28;20029;-74
2022/06/09 12:04:12;;;;;;;;;;;;;;;21.41;nan;99484.38;4973187;28;20309;-73
2022/06/09 12:07:00;;;;;;;;;;;;;;;21.23;nan;99481.06;4987320;28;20008;-75
2022/06/09 12:09:35;;;;;;;;;;;;;;;21.17;nan;99487.91;4985311;28;19969;-75
2022/06/09 12:12:27;;;;;;;;;;;;;;;21.19;nan;99488.56;4991689;28;20006;-75
2022/06/09 12:15:18;;;;;;;;;;;;;;;21.21;nan;99484.72;4988718;28;19996;-75
2022/06/09 12:17:56;;;;;;;;;;;;;;;21.22;nan;99493.56;4984923;28;20056;-75
2022/06/09 12:21:08;;;;;;;;;;;;;;;21.17;nan;99493.25;4990133;28;20437;-75
2022/06/09 12:23:44;;;;;;;;;;;;;;;21.09;nan;99495.91;4938918;28;20036;-76
2022/06/09 12:26:12;;;;;;;;;;;;;;;21.06;nan;99498.94;4941260;28;19984;-75
2022/06/09 12:28:49;;;;;;;;;;;;;;;21.04;nan;99495.63;4985080;28;20071;-75
2022/06/09 12:31:35;;;;;;;;;;;;;;;20.99;nan;99502.28;4995864;28;19992;-74
2022/06/09 12:34:34;;;;;;;;;;;;;;;20.92;nan;99503.94;4987826;28;20477;-74
2022/06/09 12:37:02;;;;;;;;;;;;;;;20.73;nan;99505.09;4987223;28;19973;-75
2022/06/09 12:39:31;;;;;;;;;;;;;;;20.47;nan;99523.88;4989932;28;20011;-74
2022/06/09 12:42:35;;;;;;;;;;;;;;;20.30;nan;99535.50;4995664;28;20034;-76
2022/06/09 12:45:06;;;;;;;;;;;;;;;20.07;nan;99541.44;4985236;28;19973;-75
2022/06/09 12:47:50;;;;;;;;;;;;;;;19.85;nan;99552.66;4988228;28;20076;-76
2022/06/09 12:50:30;;;;;;;;;;;;;;;19.72;nan;99552.25;4985299;28;20437;-76
2022/06/09 12:53:07;;;;;;;;;;;;;;;19.59;nan;99549.97;4960834;28;22516;-75
2022/06/09 12:55:42;;;;;;;;;;;;;;;19.44;nan;99553.22;4989381;28;19975;-76
2022/06/09 12:58:25;;;;;;;;;;;;;;;19.37;nan;99554.81;4990517;28;19974;-76
2022/06/09 13:00:59;;;;;;;;;;;;;;;19.35;nan;99558.63;4989069;28;20067;-76
2022/06/09 13:03:41;;;;;;;;;;;;;;;19.34;nan;99563.13;4985152;28;19989;-76
2022/06/09 13:06:31;;;;;;;;;;;;;;;19.37;nan;99556.66;4985268;28;19976;-76
2022/06/09 13:09:22;;;;;;;;;;;;;;;19.40;nan;99557.16;4981484;28;19973;-76
2022/06/09 13:15:05;;;;;;;;;;;;;;;19.85;nan;99558.00;4987012;28;19980;-75
2022/06/09 13:17:37;;;;;;;;;;;;;;;20.11;nan;99555.25;4988408;28;19979;-76
2022/06/09 13:20:16;;;;;;;;;;;;;;;20.26;nan;99560.84;4989160;28;20010;-74
2022/06/09 13:22:45;;;;;;;;;;;;;;;20.53;nan;99560.63;4988629;28;19983;-76
2022/06/09 13:25:17;;;;;;;;;;;;;;;20.72;nan;99556.00;4989507;28;20027;-76
2022/06/09 13:27:48;;;;;;;;;;;;;;;20.90;nan;99548.69;4987186;28;19969;-75
2022/06/09 13:30:29;;;;;;;;;;;;;;;21.09;nan;99544.00;4984568;28;20007;-74
2022/06/09 13:32:57;;;;;;;;;;;;;;;21.24;nan;99541.50;4991178;28;19992;-74
2022/06/09 13:35:25;;;;;;;;;;;;;;;21.38;nan;99552.34;4987057;28;20008;-75
2022/06/09 13:38:03;;;;;;;;;;;;;;;21.41;nan;99551.19;4983159;28;20460;-74
2022/06/09 13:40:41;;;;;;;;;;;;;;;21.31;nan;99551.34;4988507;28;20609;-74
2022/06/09 13:43:13;;;;;;;;;;;;;;;21.23;nan;99555.88;4984451;28;19988;-74
2022/06/09 13:45:42;;;;;;;;;;;;;;;21.30;nan;99552.34;4992641;28;19988;-74
2022/06/09 13:48:13;;;;;;;;;;;;;;;21.50;nan;99552.03;4982967;28;20256;-74
2022/06/09 13:50:41;;;;;;;;;;;;;;;21.66;nan;99554.69;4982374;28;19979;-74
2022/06/09 13:53:25;;;;;;;;;;;;;;;21.81;nan;99552.13;4989925;28;19976;-74
2022/06/09 13:55:51;;;;;;;;;;;;;;;21.91;nan;99554.63;4983769;28;19980;-75
2022/06/09 13:58:17;;;;;;;;;;;;;;;22.06;nan;99540.34;4984297;28;20016;-74
2022/06/09 14:00:47;;;;;;;;;;;;;;;22.23;nan;99546.50;4977739;28;19983;-75
2022/06/09 14:03:15;;;;;;;;;;;;;;;22.32;nan;99541.94;4964640;28;20446;-74
2022/06/09 14:05:43;;;;;;;;;;;;;;;22.24;nan;99545.47;4970321;28;20553;-74
2022/06/09 14:08:10;;;;;;;;;;;;;;;22.07;nan;99551.88;4977615;28;20521;-75
2022/06/09 14:10:36;;;;;;;;;;;;;;;21.88;nan;99559.28;4976616;28;19973;-75
2022/06/09 14:13:08;;;;;;;;;;;;;;;21.70;nan;99558.66;4965698;28;20616;-75
2022/06/09 14:15:39;;;;;;;;;;;;;;;21.59;nan;99556.34;4973854;28;20353;-75